Time;durP1;ratioP1;P1;durP2;ratioP2;P2;SDS_P1;SDS_P2;PMS_P1;PMS_P2;Temp;Humidity;BMP_temperature;BMP_pressure;BME280_temperature;BME280_humidity;BME280_pressure;Samples;Min_cycle;Max_cycle;Signal;HPM_P1;HPM_P2
2022/01/26 00:07:36;;;;;;;379.27;81.82;;;;;;;2.65;100.00;103006.28;5005136;28;20054;-81
2022/01/26 00:10:03;;;;;;;362.50;77.32;;;;;;;2.61;100.00;103002.72;4990942;28;20108;-80
2022/01/26 00:12:28;;;;;;;368.00;74.85;;;;;;;2.70;100.00;103016.13;5002824;28;20391;-79
2022/01/26 00:14:54;;;;;;;370.50;77.53;;;;;;;2.71;100.00;103014.34;5001166;28;20014;-81
2022/01/26 00:17:19;;;;;;;380.88;74.45;;;;;;;2.69;100.00;103025.19;4985033;28;20026;-81
2022/01/26 00:22:31;;;;;;;346.40;70.47;;;;;;;2.68;100.00;103012.56;5002066;28;20026;-81
2022/01/26 00:41:06;;;;;;;345.98;71.07;;;;;;;2.61;100.00;103001.81;5003882;28;20091;-81
2022/01/26 00:43:33;;;;;;;342.02;72.07;;;;;;;2.63;100.00;103006.31;5008287;28;20073;-80
2022/01/26 00:46:00;;;;;;;357.65;74.25;;;;;;;2.56;100.00;103005.47;4998925;28;20117;-80
2022/01/26 00:48:26;;;;;;;344.45;74.25;;;;;;;2.60;100.00;103002.75;4998422;28;20053;-81
2022/01/26 00:50:53;;;;;;;373.20;75.05;;;;;;;2.64;100.00;103012.59;4991226;28;20030;-81
2022/01/26 00:53:27;;;;;;;365.67;74.78;;;;;;;2.65;100.00;103009.00;4985685;28;20038;-81
2022/01/26 00:55:53;;;;;;;358.85;73.03;;;;;;;2.66;100.00;103008.09;4993490;28;20023;-81
2022/01/26 00:58:19;;;;;;;354.42;73.20;;;;;;;2.63;100.00;103006.31;4995099;28;20398;-82
2022/01/26 01:00:44;;;;;;;364.30;74.80;;;;;;;2.62;100.00;103017.13;5005730;28;20034;-82
2022/01/26 01:03:10;;;;;;;373.13;74.35;;;;;;;2.56;100.00;103005.47;5002265;28;20030;-81
2022/01/26 01:05:48;;;;;;;374.63;77.03;;;;;;;2.60;100.00;102998.22;4986057;28;20030;-82
2022/01/26 01:08:17;;;;;;;359.17;73.07;;;;;;;2.60;100.00;102989.22;5034559;28;20026;-81
2022/01/26 01:10:46;;;;;;;356.25;75.28;;;;;;;2.55;100.00;102997.38;5002903;28;20038;-82
2022/01/26 01:13:19;;;;;;;351.45;73.70;;;;;;;2.51;100.00;102998.31;5015538;28;20511;-82
2022/01/26 01:15:45;;;;;;;356.83;72.03;;;;;;;2.60;100.00;102997.34;5017048;28;20038;-82
2022/01/26 01:18:25;;;;;;;357.02;72.88;;;;;;;2.63;100.00;102984.66;5043191;28;20038;-82
2022/01/26 01:29:20;;;;;;;359.38;72.78;;;;;;;2.60;100.00;102983.81;5032721;28;20046;-80
2022/01/26 01:34:15;;;;;;;350.63;72.03;;;;;;;2.55;100.00;102983.88;5002855;28;20042;-81
2022/01/26 01:36:44;;;;;;;367.60;74.45;;;;;;;2.55;100.00;102978.47;5002391;28;20049;-82
2022/01/26 01:39:10;;;;;;;368.25;75.43;;;;;;;2.48;100.00;102969.53;5002249;28;20038;-82
2022/01/26 01:41:38;;;;;;;357.90;73.03;;;;;;;2.61;100.00;102975.69;5002597;28;20506;-82
2022/01/26 01:44:05;;;;;;;378.40;78.70;;;;;;;2.47;100.00;102967.72;5017528;28;20101;-82
2022/01/26 01:46:32;;;;;;;369.38;73.88;;;;;;;2.58;100.00;102976.59;5026362;28;20406;-82
2022/01/26 01:48:58;;;;;;;363.00;70.20;;;;;;;2.57;100.00;102973.91;5018433;28;20022;-82
2022/01/26 01:51:31;;;;;;;360.45;72.82;;;;;;;2.47;100.00;102966.84;5017761;28;20050;-82
2022/01/26 01:53:57;;;;;;;354.35;76.15;;;;;;;2.54;100.00;102977.56;5007399;28;20429;-81
2022/01/26 01:56:25;;;;;;;354.95;71.35;;;;;;;2.54;100.00;102991.09;5018812;28;20040;-82
2022/01/26 01:58:53;;;;;;;381.42;75.25;;;;;;;2.48;100.00;102974.03;4984057;28;20058;-82
2022/01/26 02:01:18;;;;;;;356.73;69.88;;;;;;;2.56;100.00;102966.75;4997017;28;20061;-82
2022/01/26 02:03:44;;;;;;;365.15;74.57;;;;;;;2.50;100.00;102961.41;5006306;28;20030;-82
2022/01/26 02:06:09;;;;;;;364.33;70.35;;;;;;;2.54;100.00;102963.13;5000022;28;20030;-81
2022/01/26 02:08:35;;;;;;;371.63;71.70;;;;;;;2.53;100.00;102974.88;4998113;28;20034;-82
2022/01/26 02:11:00;;;;;;;347.42;68.63;;;;;;;2.58;100.00;102981.13;5011201;28;20263;-82
2022/01/26 02:13:32;;;;;;;370.38;72.20;;;;;;;2.51;100.00;102976.69;5032990;28;20045;-82
2022/01/26 02:16:12;;;;;;;365.58;70.63;;;;;;;2.44;100.00;102974.97;4998350;28;20022;-82
2022/01/26 02:21:40;;;;;;;359.23;70.07;;;;;;;2.47;100.00;102964.13;5026406;28;20112;-81
2022/01/26 02:49:38;;;;;;;365.92;71.22;;;;;;;2.55;100.00;102933.38;5005837;28;20041;-82
2022/01/26 02:55:17;;;;;;;;;;;;;;;2.50;100.00;102923.53;4968455;28;20043;-83
2022/01/26 03:00:39;;;;;;;374.45;68.85;;;;;;;2.44;100.00;102919.09;4999943;28;20097;-82
2022/01/26 03:03:18;;;;;;;371.00;67.68;;;;;;;2.45;100.00;102928.13;4997490;28;20528;-82
2022/01/26 03:05:54;;;;;;;361.90;70.70;;;;;;;2.45;100.00;102918.19;5021021;28;20033;-82
2022/01/26 03:08:28;;;;;;;384.10;68.57;;;;;;;2.41;100.00;102907.41;5007904;28;20394;-82
2022/01/26 03:10:57;;;;;;;383.42;70.55;;;;;;;2.44;100.00;102915.50;5004549;28;20030;-82
2022/01/26 03:13:27;;;;;;;364.65;69.43;;;;;;;2.33;100.00;102897.59;5005195;28;20049;-82
2022/01/26 03:16:02;;;;;;;372.73;72.60;;;;;;;2.38;100.00;102909.25;5003954;28;20033;-82
2022/01/26 03:20:56;;;;;;;384.27;70.47;;;;;;;2.33;100.00;102894.91;5038174;28;20031;-82
2022/01/26 03:36:27;;;;;;;370.25;67.40;;;;;;;2.32;100.00;102903.91;4999983;28;20476;-82
2022/01/26 03:39:08;;;;;;;375.38;72.85;;;;;;;2.29;100.00;102898.53;5018079;28;20037;-81
2022/01/26 03:41:48;;;;;;;383.80;74.35;;;;;;;2.34;100.00;102907.47;5002625;28;20081;-81
2022/01/26 03:44:14;;;;;;;371.60;68.82;;;;;;;2.33;100.00;102910.22;4994735;28;20050;-80
2022/01/26 03:46:40;;;;;;;390.27;71.78;;;;;;;2.28;100.00;102909.34;5018880;28;20034;-81
2022/01/26 03:49:07;;;;;;;384.85;72.45;;;;;;;2.31;100.00;102918.34;5002179;28;20041;-81
2022/01/26 03:51:33;;;;;;;389.23;68.57;;;;;;;2.22;100.00;102918.44;5027687;28;20027;-80
2022/01/26 03:53:59;;;;;;;377.85;69.40;;;;;;;2.28;100.00;102922.88;5002154;28;20102;-82
2022/01/26 03:56:24;;;;;;;377.60;72.47;;;;;;;2.29;100.00;102922.84;4996554;28;20039;-81
2022/01/26 03:58:50;;;;;;;386.00;70.93;;;;;;;2.29;100.00;102930.09;4987672;28;20030;-83
2022/01/26 04:01:15;;;;;;;391.40;71.07;;;;;;;2.29;100.00;102925.56;5018570;28;20034;-81
2022/01/26 04:03:41;;;;;;;388.33;74.10;;;;;;;2.07;100.00;102894.31;5020631;28;20042;-82
2022/01/26 04:06:06;;;;;;;382.45;66.80;;;;;;;2.16;100.00;102926.59;5002673;28;20026;-80
2022/01/26 04:08:34;;;;;;;382.20;71.88;;;;;;;2.20;100.00;102917.56;5004737;28;20057;-80
2022/01/26 04:11:18;;;;;;;368.90;66.93;;;;;;;2.19;100.00;102919.34;5000741;28;20030;-80
2022/01/26 04:13:49;;;;;;;368.85;68.35;;;;;;;2.18;100.00;102903.16;5006628;28;20038;-82
2022/01/26 04:16:14;;;;;;;366.13;68.30;;;;;;;2.17;100.00;102915.78;5032383;28;20033;-80
2022/01/26 04:18:41;;;;;;;401.08;73.63;;;;;;;2.22;100.00;102918.44;5005596;28;20389;-80
2022/01/26 04:21:21;;;;;;;374.05;67.10;;;;;;;2.17;100.00;102914.91;5009877;28;20042;-81
2022/01/26 04:24:03;;;;;;;403.13;76.38;;;;;;;2.20;100.00;102920.28;5015111;28;20030;-81
2022/01/26 04:29:21;;;;;;;383.13;69.78;;;;;;;2.24;100.00;102899.50;5009880;28;20116;-81
2022/01/26 04:31:47;;;;;;;383.42;71.72;;;;;;;2.20;100.00;102904.06;4998643;28;20034;-82
2022/01/26 04:34:13;;;;;;;393.00;71.65;;;;;;;2.17;100.00;102923.91;4989736;28;20054;-82
2022/01/26 04:36:46;;;;;;;387.95;74.38;;;;;;;2.22;100.00;102912.16;5001173;28;20043;-81
2022/01/26 04:39:17;;;;;;;409.55;71.68;;;;;;;2.10;100.00;102903.25;5017555;28;20030;-81
2022/01/26 04:41:52;;;;;;;369.52;68.85;;;;;;;2.15;100.00;102930.25;5017838;28;20073;-81
2022/01/26 04:44:33;;;;;;;411.95;73.00;;;;;;;2.22;100.00;102940.06;5017285;28;20050;-80
2022/01/26 04:46:59;;;;;;;381.05;67.82;;;;;;;2.19;100.00;102935.56;5001629;28;20042;-81
2022/01/26 04:49:27;;;;;;;406.23;68.68;;;;;;;2.18;100.00;102925.69;5000240;28;20061;-80
2022/01/26 04:51:53;;;;;;;390.27;68.15;;;;;;;2.16;100.00;102924.78;4986264;28;20030;-80
2022/01/26 04:54:18;;;;;;;390.55;70.20;;;;;;;2.19;100.00;102926.59;5006934;28;20089;-81
2022/01/26 04:56:44;;;;;;;384.13;69.25;;;;;;;2.22;100.00;102933.78;5000882;28;20031;-83
2022/01/26 04:59:09;;;;;;;399.63;100.40;;;;;;;2.15;100.00;102923.03;5003417;28;20049;-82
2022/01/26 05:01:34;;;;;;;357.27;65.35;;;;;;;2.20;100.00;102937.38;5002552;28;20034;-81
2022/01/26 05:04:00;;;;;;;381.02;69.40;;;;;;;2.15;100.00;102939.25;4985401;28;20038;-81
2022/01/26 05:06:26;;;;;;;384.10;66.03;;;;;;;2.24;100.00;102942.75;5002555;28;20389;-81
2022/01/26 05:08:51;;;;;;;378.48;70.90;;;;;;;2.16;100.00;102923.91;5002599;28;20022;-81
2022/01/26 05:11:28;;;;;;;392.67;69.38;;;;;;;2.19;100.00;102935.56;5004283;28;20037;-79
2022/01/26 05:13:54;;;;;;;363.58;66.97;;;;;;;2.11;100.00;102940.16;5034924;28;20026;-82
2022/01/26 05:16:21;;;;;;;380.58;68.20;;;;;;;2.17;100.00;102942.81;5002546;28;20045;-80
2022/01/26 05:18:46;;;;;;;368.67;66.53;;;;;;;2.20;100.00;102929.28;5005538;28;20034;-80
2022/01/26 05:21:12;;;;;;;380.27;68.85;;;;;;;2.08;100.00;102923.09;5002885;28;20045;-80
2022/01/26 05:23:37;;;;;;;356.90;67.70;;;;;;;1.96;100.00;102900.69;5001720;28;20030;-81
2022/01/26 05:26:03;;;;;;;375.00;65.35;;;;;;;2.13;100.00;102927.56;5004464;28;20026;-81
2022/01/26 05:28:28;;;;;;;352.20;64.40;;;;;;;2.11;100.00;102928.47;4990908;28;20030;-81
2022/01/26 05:30:54;;;;;;;380.27;66.88;;;;;;;2.14;100.00;102918.50;5004356;28;20030;-80
2022/01/26 05:33:20;;;;;;;399.90;70.55;;;;;;;2.09;100.00;102906.88;5006522;28;20042;-80
2022/01/26 05:35:45;;;;;;;356.58;66.93;;;;;;;2.11;100.00;102896.03;5006147;28;20478;-83
2022/01/26 05:38:11;;;;;;;346.83;63.55;;;;;;;2.08;100.00;102893.38;5004192;28;20026;-81
2022/01/26 05:40:36;;;;;;;392.60;69.32;;;;;;;2.06;100.00;102901.50;5034920;28;20057;-82
2022/01/26 05:43:02;;;;;;;376.00;68.50;;;;;;;2.06;100.00;102887.09;5022754;28;20181;-79
2022/01/26 05:45:35;;;;;;;363.63;63.88;;;;;;;1.95;100.00;102877.31;4995452;28;20049;-80
2022/01/26 05:48:08;;;;;;;377.80;69.38;;;;;;;2.03;100.00;102904.22;5002104;28;20053;-80
2022/01/26 05:50:33;;;;;;;372.25;64.88;;;;;;;1.96;100.00;102876.38;4999567;28;20050;-80
2022/01/26 05:53:00;;;;;;;395.70;71.32;;;;;;;1.94;100.00;102877.31;5013275;28;20447;-79
2022/01/26 05:55:25;;;;;;;382.38;69.50;;;;;;;2.02;100.00;102881.72;5007550;28;20031;-80
2022/01/26 05:57:51;;;;;;;406.88;73.13;;;;;;;1.99;100.00;102889.84;4990795;28;20034;-79
2022/01/26 06:00:17;;;;;;;345.63;63.88;;;;;;;1.96;100.00;102886.28;4994423;28;20042;-78
2022/01/26 06:02:42;;;;;;;384.77;66.90;;;;;;;1.94;100.00;102874.63;5008880;28;20026;-78
2022/01/26 06:05:08;;;;;;;382.98;69.15;;;;;;;1.95;100.00;102881.78;5019902;28;20042;-79
2022/01/26 06:07:34;;;;;;;376.58;68.13;;;;;;;1.91;100.00;102878.22;5010004;28;20038;-78
2022/01/26 06:09:59;;;;;;;382.40;66.90;;;;;;;1.94;100.00;102870.09;5000873;28;20046;-79
2022/01/26 06:12:25;;;;;;;390.55;71.22;;;;;;;1.94;100.00;102885.44;5011533;28;20030;-80
2022/01/26 06:14:52;;;;;;;418.63;70.15;;;;;;;1.94;100.00;102882.72;4999535;28;20062;-79
2022/01/26 06:17:17;;;;;;;414.15;72.82;;;;;;;2.09;100.00;102892.47;4996405;28;20031;-80
2022/01/26 06:19:43;;;;;;;373.08;67.07;;;;;;;2.01;100.00;102898.84;5002945;28;20023;-80
2022/01/26 06:22:08;;;;;;;399.10;72.65;;;;;;;1.96;100.00;102889.00;5010012;28;20239;-81
2022/01/26 06:24:34;;;;;;;396.63;71.63;;;;;;;1.84;100.00;102880.09;5028692;28;20159;-81
2022/01/26 06:26:59;;;;;;;406.13;74.15;;;;;;;1.95;100.00;102900.69;5025088;28;20113;-81
2022/01/26 06:29:25;;;;;;;397.98;70.28;;;;;;;1.97;100.00;102894.38;5005148;28;20405;-82
2022/01/26 06:31:50;;;;;;;393.20;71.38;;;;;;;2.00;100.00;102898.84;5032277;28;20053;-81
2022/01/26 06:34:16;;;;;;;390.98;70.28;;;;;;;2.02;100.00;102906.03;5025569;28;20042;-81
2022/01/26 06:36:43;;;;;;;401.83;71.30;;;;;;;1.98;100.00;102879.97;5015461;28;20026;-81
2022/01/26 06:39:13;;;;;;;396.75;74.25;;;;;;;1.94;100.00;102864.69;5007282;28;20033;-80
2022/01/26 06:41:47;;;;;;;389.75;70.90;;;;;;;2.07;100.00;102875.38;5004531;28;20035;-80
2022/01/26 06:44:19;;;;;;;405.55;72.35;;;;;;;1.96;100.00;102862.00;4987002;28;20042;-80
2022/01/26 06:51:48;;;;;;;389.75;69.00;;;;;;;1.95;100.00;102865.59;5003083;28;20030;-79
2022/01/26 06:54:13;;;;;;;409.05;72.65;;;;;;;1.95;100.00;102876.38;5014815;28;20395;-81
2022/01/26 06:56:39;;;;;;;392.80;70.97;;;;;;;2.01;100.00;102884.44;5001363;28;20050;-81
2022/01/26 06:59:04;;;;;;;426.55;78.78;;;;;;;2.06;100.00;102900.59;5014626;28;20047;-81
2022/01/26 07:01:30;;;;;;;415.10;73.88;;;;;;;2.00;100.00;102894.34;5009177;28;20037;-81
2022/01/26 07:03:55;;;;;;;388.42;72.25;;;;;;;1.98;100.00;102885.38;4989542;28;20060;-81
2022/01/26 07:06:21;;;;;;;384.00;71.45;;;;;;;2.08;100.00;102906.88;5005464;28;20049;-82
2022/01/26 07:08:46;;;;;;;388.25;72.47;;;;;;;2.09;100.00;102900.56;5020818;28;20034;-81
2022/01/26 07:11:12;;;;;;;397.70;69.22;;;;;;;2.13;100.00;102888.81;5025225;28;20033;-81
2022/01/26 07:13:39;;;;;;;420.60;74.22;;;;;;;2.07;100.00;102897.00;5003519;28;20040;-81
2022/01/26 07:21:33;;;;;;;400.55;75.07;;;;;;;2.01;100.00;102885.31;5004389;28;20441;-81
2022/01/26 07:23:59;;;;;;;396.67;71.53;;;;;;;2.02;100.00;102875.44;5008555;28;20030;-82
2022/01/26 07:26:28;;;;;;;396.40;71.03;;;;;;;2.07;100.00;102880.78;5009645;28;20038;-81
2022/01/26 07:28:59;;;;;;;397.65;74.47;;;;;;;2.07;100.00;102888.91;5005624;28;20109;-81
2022/01/26 07:31:24;;;;;;;403.10;77.22;;;;;;;2.13;100.00;102889.72;5007346;28;20132;-81
2022/01/26 07:33:57;;;;;;;386.30;72.93;;;;;;;2.04;100.00;102886.22;4998916;28;20057;-80
2022/01/26 07:36:24;;;;;;;375.88;67.93;;;;;;;2.10;100.00;102913.16;5004782;28;20023;-81
2022/01/26 07:38:50;;;;;;;419.42;76.75;;;;;;;2.10;100.00;102922.19;5005677;28;20050;-81
2022/01/26 07:41:17;;;;;;;405.85;74.22;;;;;;;2.07;100.00;102902.41;5005969;28;20034;-81
2022/01/26 07:43:42;;;;;;;390.88;72.18;;;;;;;2.13;100.00;102907.72;5004526;28;20482;-80
2022/01/26 07:46:12;;;;;;;393.75;72.50;;;;;;;2.10;100.00;102915.84;5037917;28;20056;-79
2022/01/26 07:48:38;;;;;;;392.52;71.88;;;;;;;2.14;100.00;102921.22;4992831;28;20034;-79
2022/01/26 07:51:03;;;;;;;400.17;74.55;;;;;;;2.10;100.00;102910.44;5001051;28;20101;-80
2022/01/26 07:53:29;;;;;;;420.70;74.82;;;;;;;2.17;100.00;102899.56;4983978;28;20043;-79
2022/01/26 07:55:56;;;;;;;411.70;73.70;;;;;;;2.06;100.00;102893.38;4988892;28;20061;-80
2022/01/26 07:58:22;;;;;;;395.73;73.68;;;;;;;2.08;100.00;102888.84;4983899;28;20057;-79
2022/01/26 08:00:48;;;;;;;393.02;72.70;;;;;;;2.13;100.00;102887.03;5003427;28;20065;-78
2022/01/26 08:03:14;;;;;;;421.42;76.25;;;;;;;2.14;100.00;102888.78;5005362;28;20081;-80
2022/01/26 08:05:41;;;;;;;416.25;75.32;;;;;;;2.10;100.00;102894.25;4988637;28;20030;-79
2022/01/26 08:08:07;;;;;;;421.58;73.22;;;;;;;2.13;100.00;102905.03;5001615;28;20045;-78
2022/01/26 08:10:33;;;;;;;433.63;76.68;;;;;;;2.28;100.00;102915.69;5016424;28;20042;-79
2022/01/26 08:12:59;;;;;;;413.23;76.22;;;;;;;2.21;100.00;102913.94;5016973;28;20034;-79
2022/01/26 08:15:26;;;;;;;403.25;76.15;;;;;;;2.07;100.00;102891.59;5036403;28;20085;-79
2022/01/26 08:17:52;;;;;;;427.70;76.68;;;;;;;2.24;100.00;102923.84;5004265;28;20030;-80
2022/01/26 08:20:19;;;;;;;405.73;74.68;;;;;;;2.18;100.00;102925.69;5022263;28;20025;-81
2022/01/26 08:22:45;;;;;;;403.50;71.22;;;;;;;2.15;100.00;102922.13;5010625;28;20497;-80
2022/01/26 08:25:11;;;;;;;428.33;78.55;;;;;;;2.26;100.00;102943.63;5004069;28;20094;-79
2022/01/26 08:27:41;;;;;;;413.17;76.53;;;;;;;2.20;100.00;102956.28;5019703;28;20034;-80
2022/01/26 08:30:12;;;;;;;418.65;76.63;;;;;;;2.29;100.00;102957.09;5022896;28;20101;-80
2022/01/26 08:32:38;;;;;;;388.60;72.15;;;;;;;2.18;100.00;102944.63;5003200;28;20036;-81
2022/01/26 08:35:04;;;;;;;419.08;78.55;;;;;;;2.24;100.00;102943.63;5005212;28;20034;-81
2022/01/26 08:37:29;;;;;;;429.08;73.03;;;;;;;2.23;100.00;102932.84;5020186;28;20104;-81
2022/01/26 08:39:55;;;;;;;398.83;67.32;;;;;;;2.18;100.00;102928.41;5005601;28;20114;-79
2022/01/26 08:42:21;;;;;;;425.23;74.68;;;;;;;2.21;100.00;102930.16;5020469;28;20053;-81
2022/01/26 08:44:47;;;;;;;434.52;74.68;;;;;;;2.19;100.00;102929.28;5020119;28;20054;-82
2022/01/26 08:47:13;;;;;;;443.80;76.18;;;;;;;2.13;100.00;102932.03;4986533;28;20045;-81
2022/01/26 08:49:38;;;;;;;404.40;72.78;;;;;;;2.18;100.00;102916.66;5002124;28;20027;-81
2022/01/26 08:52:04;;;;;;;433.00;73.65;;;;;;;2.20;100.00;102937.38;5005914;28;20038;-81
2022/01/26 08:54:29;;;;;;;444.48;76.28;;;;;;;2.16;100.00;102937.41;5034767;28;20041;-79
2022/01/26 08:56:55;;;;;;;432.33;76.80;;;;;;;2.17;100.00;102948.22;5014516;28;20090;-80
2022/01/26 08:59:23;;;;;;;426.95;73.35;;;;;;;2.22;100.00;102945.47;5018245;28;20042;-80
2022/01/26 09:01:49;;;;;;;416.50;71.88;;;;;;;2.17;100.00;102952.72;5004690;28;20033;-81
2022/01/26 09:04:15;;;;;;;440.42;75.70;;;;;;;2.28;100.00;102968.81;4988021;28;20054;-81
2022/01/26 09:09:44;;;;;;;453.85;74.38;;;;;;;2.26;100.00;102971.53;4999889;28;20038;-81
2022/01/26 09:12:12;;;;;;;456.17;80.22;;;;;;;2.24;100.00;102959.84;5004616;28;20176;-80
2022/01/26 09:14:37;;;;;;;442.05;74.93;;;;;;;2.23;100.00;102963.50;5010194;28;20034;-80
2022/01/26 09:17:05;;;;;;;453.35;78.78;;;;;;;2.26;100.00;102955.31;5018485;28;20041;-80
2022/01/26 09:19:31;;;;;;;451.00;73.28;;;;;;;2.26;100.00;102954.44;5002764;28;20026;-79
2022/01/26 09:21:59;;;;;;;439.33;72.20;;;;;;;2.17;100.00;102948.22;4999691;28;20038;-80
2022/01/26 09:24:30;;;;;;;445.60;76.65;;;;;;;2.14;100.00;102940.13;5002489;28;20782;-81
2022/01/26 09:26:57;;;;;;;430.65;74.90;;;;;;;2.18;100.00;102955.44;5001991;28;20034;-80
2022/01/26 09:29:22;;;;;;;452.63;76.88;;;;;;;2.19;100.00;102957.19;4984726;28;20081;-79
2022/01/26 09:31:48;;;;;;;458.63;70.55;;;;;;;2.22;100.00;102956.28;5034202;28;20031;-79
2022/01/26 09:34:19;;;;;;;448.52;75.18;;;;;;;2.17;100.00;102952.72;5006020;28;20034;-79
2022/01/26 09:36:45;;;;;;;443.90;74.43;;;;;;;2.20;100.00;102958.13;4994715;28;20042;-80
2022/01/26 09:39:12;;;;;;;428.33;70.65;;;;;;;2.21;100.00;102965.28;5004031;28;20030;-79
2022/01/26 09:41:38;;;;;;;432.25;73.63;;;;;;;2.28;100.00;102969.75;4994212;28;20039;-78
2022/01/26 09:44:04;;;;;;;435.48;69.07;;;;;;;2.23;100.00;102966.19;5000741;28;20065;-80
2022/01/26 09:46:30;;;;;;;430.65;73.47;;;;;;;2.25;100.00;102958.97;5002889;28;20041;-80
2022/01/26 09:48:56;;;;;;;411.35;70.70;;;;;;;2.28;100.00;102960.72;5001574;28;20085;-80
2022/01/26 09:51:22;;;;;;;426.13;74.50;;;;;;;2.24;100.00;102934.66;5004073;28;20512;-79
2022/01/26 09:54:09;;;;;;;420.70;71.75;;;;;;;2.24;100.00;102924.72;5012187;28;20030;-79
2022/01/26 09:56:35;;;;;;;397.50;68.72;;;;;;;2.29;100.00;102935.50;5005429;28;20053;-80
2022/01/26 09:59:00;;;;;;;407.98;70.22;;;;;;;2.32;100.00;102938.16;4998360;28;20034;-80
2022/01/26 10:01:26;;;;;;;394.05;68.85;;;;;;;2.35;100.00;102925.50;5016530;28;20098;-81
2022/01/26 10:03:52;;;;;;;429.88;71.63;;;;;;;2.45;100.00;102925.41;5002943;28;20030;-82
2022/01/26 10:06:28;;;;;;;413.00;70.88;;;;;;;2.43;100.00;102928.13;5019242;28;20026;-82
2022/01/26 10:09:28;;;;;;;394.73;66.75;;;;;;;2.45;100.00;102928.13;5036836;28;20026;-82
2022/01/26 10:17:29;;;;;;;410.02;66.88;;;;;;;2.36;100.00;102918.28;5003761;28;20382;-82
2022/01/26 10:20:00;;;;;;;379.52;70.00;;;;;;;2.37;100.00;102920.97;5000847;28;20041;-82
2022/01/26 10:22:27;;;;;;;377.92;62.35;;;;;;;2.32;100.00;102920.13;5002198;28;20034;-82
2022/01/26 10:25:16;;;;;;;423.30;68.43;;;;;;;2.39;100.00;102947.97;5018579;28;20026;-82
2022/01/26 10:27:48;;;;;;;412.52;68.60;;;;;;;2.39;100.00;102939.88;5002687;28;20088;-83
2022/01/26 10:30:17;;;;;;;424.27;70.00;;;;;;;2.38;100.00;102933.59;5036639;28;20006;-83
2022/01/26 10:32:46;;;;;;;348.10;60.67;;;;;;;2.24;100.00;102902.22;5003349;28;20030;-83
2022/01/26 10:35:14;;;;;;;427.40;67.85;;;;;;;2.42;100.00;102923.63;5033446;28;20033;-82
2022/01/26 10:37:48;;;;;;;403.17;68.13;;;;;;;2.43;100.00;102921.81;5001181;28;20026;-83
2022/01/26 10:40:19;;;;;;;366.17;68.18;;;;;;;2.49;100.00;102916.34;4988396;28;20049;-83
2022/01/26 10:43:00;;;;;;;396.98;64.40;;;;;;;2.58;100.00;102940.56;5002094;28;20061;-82
2022/01/26 10:45:32;;;;;;;372.85;65.30;;;;;;;2.61;100.00;102945.03;5018246;28;20018;-83
2022/01/26 10:48:11;;;;;;;342.80;61.92;;;;;;;2.60;100.00;102945.97;5004837;28;20033;-83
2022/01/26 10:53:10;;;;;;;340.10;62.75;;;;;;;2.73;100.00;102961.13;5007697;28;20038;-82
2022/01/26 10:55:37;;;;;;;347.35;61.13;;;;;;;2.71;100.00;102966.53;5006837;28;20050;-81
2022/01/26 10:58:04;;;;;;;369.90;67.97;;;;;;;2.75;100.00;102975.50;4990155;28;20034;-82
2022/01/26 11:00:38;;;;;;;337.92;61.65;;;;;;;2.77;100.00;102968.25;5012166;28;20163;-82
2022/01/26 11:03:05;;;;;;;345.52;66.32;;;;;;;2.79;100.00;102969.16;5004510;28;20081;-82
2022/01/26 11:05:31;;;;;;;320.90;61.10;;;;;;;2.82;100.00;102968.22;5000092;28;20049;-81
2022/01/26 11:07:59;;;;;;;324.40;61.85;;;;;;;2.72;100.00;102946.72;5021870;28;20034;-82
2022/01/26 11:10:37;;;;;;;335.73;61.55;;;;;;;2.79;100.00;102938.50;5004646;28;20038;-82
2022/01/26 11:13:05;;;;;;;346.52;62.15;;;;;;;2.74;100.00;102950.28;5006038;28;20034;-82
2022/01/26 11:15:31;;;;;;;345.38;62.92;;;;;;;2.79;100.00;102947.53;5021751;28;20026;-82
2022/01/26 11:18:17;;;;;;;330.38;61.47;;;;;;;2.78;100.00;102942.13;5022147;28;20030;-82
2022/01/26 11:20:51;;;;;;;323.98;62.55;;;;;;;2.69;100.00;102937.72;4990708;28;20038;-85
2022/01/26 11:23:33;;;;;;;319.85;60.58;;;;;;;2.75;100.00;102946.69;5020850;28;20084;-83
2022/01/26 11:25:58;;;;;;;334.52;64.18;;;;;;;2.78;100.00;102942.13;5022151;28;20433;-83
2022/01/26 11:28:26;;;;;;;336.60;67.63;;;;;;;2.71;100.00;102949.44;5004425;28;20145;-82
2022/01/26 11:30:55;;;;;;;324.42;60.65;;;;;;;2.69;100.00;102940.41;4989264;28;20030;-82
2022/01/26 11:33:24;;;;;;;341.60;64.43;;;;;;;2.70;100.00;102929.59;5022287;28;20018;-83
2022/01/26 11:35:52;;;;;;;304.83;59.20;;;;;;;2.75;100.00;102935.84;5005632;28;20034;-82
2022/01/26 11:39:04;;;;;;;337.02;62.03;;;;;;;2.73;100.00;102934.97;5004254;28;20501;-83
2022/01/26 11:47:23;;;;;;;314.25;58.03;;;;;;;2.66;100.00;102916.16;5034749;28;20069;-82
2022/01/26 11:50:00;;;;;;;340.40;60.25;;;;;;;2.79;100.00;102924.97;5039401;28;20100;-82
2022/01/26 11:52:29;;;;;;;316.08;59.30;;;;;;;2.75;100.00;102929.53;4990815;28;20026;-83
2022/01/26 11:54:58;;;;;;;329.48;61.28;;;;;;;2.76;100.00;102925.94;5015658;28;20474;-82
2022/01/26 11:58:05;;;;;;;343.63;63.58;;;;;;;2.79;100.00;102916.84;5009739;28;20042;-82
2022/01/26 12:00:40;;;;;;;307.98;62.60;;;;;;;2.82;100.00;102919.53;4996593;28;20046;-81
2022/01/26 12:03:10;;;;;;;303.63;60.53;;;;;;;2.78;100.00;102910.56;5003359;28;20058;-80
2022/01/26 12:05:46;;;;;;;312.67;58.10;;;;;;;2.84;100.00;102902.38;5015380;28;20489;-81
2022/01/26 12:08:12;;;;;;;325.52;62.55;;;;;;;2.85;100.00;102909.56;5009884;28;20043;-80
2022/01/26 12:10:39;;;;;;;325.95;57.60;;;;;;;2.81;100.00;102913.22;4987538;28;20038;-81
2022/01/26 12:13:08;;;;;;;301.15;60.22;;;;;;;2.73;100.00;102894.38;5005864;28;20339;-80
2022/01/26 12:15:57;;;;;;;313.98;61.55;;;;;;;2.84;100.00;102899.66;4994834;28;20100;-81
2022/01/26 12:32:51;;;;;;;289.25;58.00;;;;;;;2.98;100.00;102891.34;5000860;28;20042;-81
2022/01/26 12:43:38;;;;;;;297.85;58.08;;;;;;;2.99;100.00;102887.72;4995929;28;20042;-81
2022/01/26 12:46:08;;;;;;;270.38;57.40;;;;;;;3.01;100.00;102901.25;4995071;28;20022;-81
2022/01/26 12:48:37;;;;;;;311.35;59.45;;;;;;;3.08;100.00;102900.22;5001251;28;20054;-81
2022/01/26 12:51:05;;;;;;;288.13;56.95;;;;;;;3.02;100.00;102890.41;5002114;28;20030;-81
2022/01/26 12:53:32;;;;;;;298.65;61.20;;;;;;;3.07;100.00;102899.34;4986512;28;20073;-81
2022/01/26 12:56:07;;;;;;;310.25;60.35;;;;;;;3.06;100.00;102892.13;4979587;28;20494;-81
2022/01/26 12:58:35;;;;;;;277.65;55.90;;;;;;;3.07;100.00;102899.34;4997534;28;20117;-81
2022/01/26 13:01:05;;;;;;;307.50;60.20;;;;;;;3.12;100.00;102894.75;5002057;28;20036;-82
2022/01/26 13:03:39;;;;;;;293.70;59.97;;;;;;;3.17;100.00;102891.97;5034070;28;20061;-80
2022/01/26 13:06:06;;;;;;;328.65;61.50;;;;;;;3.16;100.00;102895.59;5000738;28;20035;-80
2022/01/26 13:09:14;;;;;;;321.55;60.40;;;;;;;3.23;100.00;102893.69;5007348;28;20049;-80
2022/01/26 13:11:39;;;;;;;305.92;61.45;;;;;;;3.22;100.00;102878.38;5013321;28;20049;-81
2022/01/26 13:14:18;;;;;;;313.42;60.40;;;;;;;3.17;100.00;102878.44;5008855;28;20034;-81
2022/01/26 13:19:57;;;;;;;294.08;58.78;;;;;;;3.22;100.00;102860.31;5002727;28;20049;-81
2022/01/26 13:22:52;;;;;;;279.45;57.95;;;;;;;3.34;100.00;102855.63;5003863;28;20038;-81
2022/01/26 13:36:03;;;;;;;280.55;57.97;;;;;;;3.18;100.00;102841.44;5004291;28;20177;-81
2022/01/26 13:49:40;;;;;;;285.95;55.25;;;;;;;3.35;100.00;102849.31;5001693;28;20038;-80
2022/01/26 13:52:20;;;;;;;258.17;57.03;;;;;;;3.35;100.00;102846.59;4981161;28;20041;-80
2022/01/26 13:55:01;;;;;;;263.85;55.45;;;;;;;3.33;100.00;102845.69;4998538;28;20109;-82